Time;durP1;ratioP1;P1;durP2;ratioP2;P2;SDS_P1;SDS_P2;PMS_P1;PMS_P2;Temp;Humidity;BMP_temperature;BMP_pressure;BME280_temperature;BME280_humidity;BME280_pressure;Samples;Min_cycle;Max_cycle;Signal;HPM_P1;HPM_P2
2022/01/22 00:01:01;;;;;;;14.77;10.02;;;5.30;82.80;;;;;;5015675;28;20300;-66
2022/01/22 00:03:30;;;;;;;15.43;9.30;;;5.30;82.80;;;;;;5011355;28;20229;-68
2022/01/22 00:05:58;;;;;;;19.80;11.20;;;5.30;82.80;;;;;;5011868;28;20263;-68
2022/01/22 00:08:26;;;;;;;13.00;9.48;;;5.30;82.80;;;;;;5014597;28;20213;-68
2022/01/22 00:10:54;;;;;;;17.08;10.70;;;5.30;82.90;;;;;;5014260;28;20198;-69
2022/01/22 00:16:09;;;;;;;14.75;10.10;;;5.30;82.80;;;;;;5015681;28;20233;-67
2022/01/22 00:18:37;;;;;;;16.00;9.80;;;5.30;82.90;;;;;;5012769;28;20249;-67
2022/01/22 00:21:05;;;;;;;15.02;9.98;;;5.30;82.90;;;;;;5008764;28;20210;-66
2022/01/22 00:23:33;;;;;;;15.35;10.75;;;5.30;82.90;;;;;;5012883;28;20307;-65
2022/01/22 00:26:01;;;;;;;14.35;9.60;;;5.30;83.00;;;;;;5015341;28;20209;-67
2022/01/22 00:28:29;;;;;;;13.63;9.50;;;5.30;83.00;;;;;;5011994;28;20240;-66
2022/01/22 00:30:57;;;;;;;13.20;9.43;;;5.30;83.00;;;;;;5015869;28;20232;-67
2022/01/22 00:33:26;;;;;;;19.40;10.80;;;5.30;83.00;;;;;;5007467;28;20229;-65
2022/01/22 00:35:54;;;;;;;13.23;9.10;;;5.30;83.10;;;;;;5012844;28;20208;-67
2022/01/22 00:38:22;;;;;;;14.65;9.80;;;5.30;83.10;;;;;;5011884;28;20218;-66
2022/01/22 00:40:51;;;;;;;13.18;8.57;;;5.30;83.40;;;;;;5010852;28;20270;-67
2022/01/22 00:43:21;;;;;;;13.60;9.60;;;5.30;83.20;;;;;;5013221;28;20217;-67
2022/01/22 00:45:49;;;;;;;12.35;9.10;;;5.30;83.20;;;;;;4991531;28;20233;-66
2022/01/22 00:48:17;;;;;;;15.93;9.07;;;5.30;83.30;;;;;;5008130;28;20609;-66
2022/01/22 00:50:50;;;;;;;12.80;8.27;;;5.30;83.30;;;;;;5010264;28;20690;-66
2022/01/22 00:53:19;;;;;;;14.20;9.63;;;5.20;83.40;;;;;;4994965;28;20775;-67
2022/01/22 00:55:47;;;;;;;14.32;9.02;;;5.20;83.60;;;;;;5007045;28;20213;-67
2022/01/22 00:58:15;;;;;;;13.18;9.68;;;5.30;83.50;;;;;;4993961;28;20217;-67
2022/01/22 01:00:43;;;;;;;15.95;10.65;;;5.20;83.60;;;;;;5009719;28;20288;-68
2022/01/22 01:03:11;;;;;;;16.48;11.35;;;5.20;83.70;;;;;;5000193;28;20229;-70
2022/01/22 01:05:39;;;;;;;13.82;9.65;;;5.20;83.70;;;;;;5009276;28;20288;-70
2022/01/22 01:08:09;;;;;;;14.45;10.00;;;5.30;83.70;;;;;;4994983;28;20205;-69
2022/01/22 01:10:37;;;;;;;16.73;11.05;;;5.30;83.80;;;;;;5009100;28;20216;-68
2022/01/22 01:13:05;;;;;;;16.40;11.90;;;5.30;83.80;;;;;;4995674;28;21024;-68
2022/01/22 01:15:41;;;;;;;18.17;11.60;;;5.20;83.80;;;;;;4998250;28;20351;-70
2022/01/22 01:32:16;;;;;;;24.52;11.75;;;5.30;84.00;;;;;;5000847;28;21057;-70
2022/01/22 01:34:46;;;;;;;16.33;11.93;;;5.30;83.80;;;;;;5012753;28;20228;-68
2022/01/22 01:37:16;;;;;;;17.55;12.20;;;5.30;84.00;;;;;;4998117;28;20217;-68
2022/01/22 01:39:50;;;;;;;20.23;11.38;;;5.30;83.90;;;;;;5009685;28;20225;-67
2022/01/22 01:42:24;;;;;;;16.48;11.15;;;5.30;84.20;;;;;;4995993;28;20210;-68
2022/01/22 01:44:52;;;;;;;19.90;12.25;;;5.30;84.10;;;;;;4993053;28;20209;-65
2022/01/22 01:47:29;;;;;;;15.90;10.65;;;5.30;84.10;;;;;;4992201;28;20288;-65
2022/01/22 01:49:57;;;;;;;18.65;13.00;;;5.30;84.00;;;;;;5002227;28;20197;-65
2022/01/22 01:52:40;;;;;;;19.60;11.93;;;5.30;84.00;;;;;;4993712;28;20212;-67
2022/01/22 01:55:14;;;;;;;21.60;12.13;;;5.30;84.00;;;;;;4999494;28;20212;-67
2022/01/22 01:57:43;;;;;;;19.98;12.82;;;5.30;84.20;;;;;;4989738;28;20228;-67
2022/01/22 02:00:19;;;;;;;21.42;12.10;;;5.30;84.10;;;;;;4993112;28;20213;-67
2022/01/22 02:03:00;;;;;;;17.55;12.77;;;5.30;84.30;;;;;;4998314;28;20709;-67
2022/01/22 02:05:37;;;;;;;20.23;13.05;;;5.30;84.20;;;;;;5011001;28;20296;-67
2022/01/22 02:08:06;;;;;;;17.15;12.48;;;5.30;84.30;;;;;;5008880;28;20201;-67
2022/01/22 02:10:54;;;;;;;23.48;11.75;;;5.40;84.20;;;;;;4995788;28;20209;-67
2022/01/22 02:13:57;;;;;;;20.60;12.10;;;5.30;84.20;;;;;;4993933;28;20229;-67
2022/01/22 02:25:04;;;;;;;18.98;11.18;;;5.30;84.30;;;;;;4994897;28;21095;-66
2022/01/22 02:27:32;;;;;;;21.90;11.55;;;5.30;84.30;;;;;;5011572;28;20212;-66
2022/01/22 02:30:01;;;;;;;15.55;10.20;;;5.30;84.30;;;;;;4995150;28;20205;-66
2022/01/22 02:33:13;;;;;;;17.25;9.85;;;5.30;84.30;;;;;;4992956;28;20240;-67
2022/01/22 02:35:49;;;;;;;18.55;10.40;;;5.30;84.40;;;;;;4994814;28;20229;-67
2022/01/22 02:38:23;;;;;;;16.55;11.25;;;5.30;84.40;;;;;;5002159;28;20228;-67
2022/01/22 02:40:51;;;;;;;18.02;10.65;;;5.30;84.40;;;;;;5012623;28;20210;-67
2022/01/22 02:43:20;;;;;;;15.13;9.75;;;5.40;84.30;;;;;;4988660;28;20234;-66
2022/01/22 02:45:49;;;;;;;21.35;11.38;;;5.40;84.40;;;;;;5009664;28;20745;-66
2022/01/22 02:48:18;;;;;;;15.02;11.15;;;5.40;84.30;;;;;;5002480;28;20917;-66
2022/01/22 02:50:46;;;;;;;16.80;9.77;;;5.40;84.30;;;;;;4996177;28;20843;-65
2022/01/22 02:53:14;;;;;;;18.77;9.85;;;5.40;84.30;;;;;;4995624;28;20233;-65
2022/01/22 02:55:45;;;;;;;16.10;9.65;;;5.40;84.30;;;;;;4992837;28;20665;-67
2022/01/22 02:58:15;;;;;;;16.27;9.98;;;5.40;84.40;;;;;;5010774;28;20639;-66
2022/01/22 03:00:43;;;;;;;16.23;9.07;;;5.40;84.30;;;;;;4999137;28;20478;-67
2022/01/22 03:03:12;;;;;;;17.20;9.70;;;5.40;84.30;;;;;;5008139;28;20234;-66
2022/01/22 03:05:40;;;;;;;12.43;8.40;;;5.40;84.30;;;;;;4996922;28;20248;-66
2022/01/22 03:08:10;;;;;;;12.30;8.48;;;5.40;84.20;;;;;;4993332;28;20198;-66
2022/01/22 03:10:39;;;;;;;12.52;8.43;;;5.30;84.30;;;;;;4994665;28;20695;-67
2022/01/22 03:16:04;;;;;;;14.52;7.95;;;5.30;84.30;;;;;;4978771;28;20245;-67
2022/01/22 03:18:49;;;;;;;14.60;8.05;;;5.30;84.30;;;;;;5004216;28;20263;-67
2022/01/22 03:21:35;;;;;;;16.92;7.78;;;5.30;84.30;;;;;;4994893;28;20217;-66
2022/01/22 03:29:38;;;;;;;12.43;6.60;;;5.30;84.40;;;;;;4994572;28;20209;-67
2022/01/22 03:32:10;;;;;;;10.18;7.05;;;5.40;84.30;;;;;;5008336;28;20257;-67
2022/01/22 03:34:43;;;;;;;13.07;7.07;;;5.30;84.20;;;;;;5009957;28;20224;-68
2022/01/22 03:37:12;;;;;;;11.52;7.05;;;5.30;84.20;;;;;;5007489;28;20193;-67
2022/01/22 03:39:40;;;;;;;11.02;7.35;;;5.30;84.20;;;;;;4994734;28;20267;-67
2022/01/22 03:42:08;;;;;;;13.23;6.50;;;5.30;84.20;;;;;;5010531;28;20291;-66
2022/01/22 03:44:38;;;;;;;11.82;6.55;;;5.30;84.20;;;;;;4999985;28;20237;-67
2022/01/22 03:47:07;;;;;;;11.60;6.47;;;5.30;84.20;;;;;;4998774;28;20705;-67
2022/01/22 03:49:35;;;;;;;9.90;5.80;;;5.30;84.30;;;;;;5002982;28;20284;-67
2022/01/22 03:52:06;;;;;;;8.90;6.82;;;5.30;84.30;;;;;;5004181;28;20199;-67
2022/01/22 03:54:34;;;;;;;11.10;6.90;;;5.30;84.20;;;;;;5009016;28;20232;-67
2022/01/22 03:57:04;;;;;;;15.05;6.43;;;5.30;84.30;;;;;;4997672;28;20220;-67
2022/01/22 03:59:41;;;;;;;11.15;6.50;;;5.30;84.30;;;;;;5006775;28;20256;-67
2022/01/22 04:05:27;;;;;;;8.77;6.10;;;5.30;84.10;;;;;;4954188;28;20211;-67
2022/01/22 04:10:39;;;;;;;9.43;5.65;;;5.30;84.20;;;;;;4990112;28;20212;-67
2022/01/22 04:13:11;;;;;;;10.75;6.30;;;5.30;84.10;;;;;;5006111;28;20303;-67
2022/01/22 04:15:41;;;;;;;10.23;6.07;;;5.30;84.10;;;;;;5000458;28;20234;-67
2022/01/22 04:26:39;;;;;;;7.38;5.35;;;5.30;83.80;;;;;;5008727;28;20216;-70
2022/01/22 04:29:07;;;;;;;12.68;5.43;;;5.30;83.90;;;;;;5013901;28;20208;-67
2022/01/22 04:31:36;;;;;;;11.70;6.47;;;5.30;83.90;;;;;;5008119;28;20246;-67
2022/01/22 04:34:04;;;;;;;11.18;6.20;;;5.40;83.90;;;;;;4997527;28;20264;-68
2022/01/22 04:36:32;;;;;;;9.35;5.28;;;5.30;83.50;;;;;;5015304;28;20199;-67
2022/01/22 04:39:00;;;;;;;9.85;6.30;;;5.30;83.90;;;;;;5012188;28;20272;-68
2022/01/22 04:41:28;;;;;;;12.35;5.95;;;5.30;83.90;;;;;;5012725;28;20221;-69
2022/01/22 04:44:00;;;;;;;13.82;7.05;;;5.30;83.90;;;;;;5012174;28;20216;-70
2022/01/22 04:46:48;;;;;;;9.63;5.68;;;5.30;83.70;;;;;;4999068;28;20229;-68
2022/01/22 04:52:36;;;;;;;7.82;5.47;;;5.30;83.80;;;;;;5068708;27;20555;-67
2022/01/22 04:55:05;;;;;;;13.68;6.35;;;5.40;83.80;;;;;;5007998;28;20216;-66
2022/01/22 04:57:37;;;;;;;13.60;6.80;;;5.30;83.80;;;;;;5013857;28;20789;-65
2022/01/22 05:00:08;;;;;;;9.25;6.72;;;5.30;83.80;;;;;;5006151;28;20214;-67
2022/01/22 05:02:55;;;;;;;11.57;6.72;;;5.30;83.80;;;;;;5005172;28;20264;-66
2022/01/22 05:05:41;;;;;;;9.18;5.95;;;5.30;83.80;;;;;;5005912;28;20318;-65
2022/01/22 05:08:39;;;;;;;14.40;6.40;;;5.40;83.70;;;;;;4990275;28;20220;-66
2022/01/22 05:11:10;;;;;;;11.85;6.75;;;5.40;83.70;;;;;;5011747;28;20291;-68
2022/01/22 05:13:41;;;;;;;12.10;6.22;;;5.40;83.70;;;;;;5007285;28;20222;-69
2022/01/22 05:16:11;;;;;;;9.30;5.85;;;5.40;83.70;;;;;;5007048;28;20243;-70
2022/01/22 05:18:49;;;;;;;11.90;6.75;;;5.40;83.40;;;;;;5016862;28;20209;-68
2022/01/22 05:21:18;;;;;;;8.40;6.15;;;5.40;83.50;;;;;;4996160;28;20213;-69
2022/01/22 05:23:49;;;;;;;8.65;6.57;;;5.40;83.50;;;;;;5004499;28;20245;-69
2022/01/22 05:26:48;;;;;;;10.60;7.25;;;5.40;83.50;;;;;;5014758;28;20211;-68
2022/01/22 05:29:24;;;;;;;12.95;7.25;;;5.40;83.70;;;;;;5005215;28;20218;-68
2022/01/22 05:32:33;;;;;;;9.30;6.60;;;5.40;83.50;;;;;;5006140;28;20249;-69
2022/01/22 05:38:14;;;;;;;10.40;6.60;;;5.40;83.70;;;;;;5009525;28;20226;-68
2022/01/22 05:40:44;;;;;;;10.32;7.28;;;5.40;83.50;;;;;;5004408;28;20214;-70
2022/01/22 05:43:11;;;;;;;14.73;7.55;;;5.40;83.50;;;;;;4998840;28;20238;-68
2022/01/22 05:45:39;;;;;;;12.38;7.60;;;5.40;83.50;;;;;;4998179;28;20311;-69
2022/01/22 05:48:08;;;;;;;10.27;7.05;;;5.40;83.40;;;;;;4992657;28;20556;-68
2022/01/22 05:50:47;;;;;;;12.27;7.72;;;5.40;83.40;;;;;;4998429;28;20236;-68
2022/01/22 05:53:29;;;;;;;14.05;7.80;;;5.40;83.50;;;;;;5002630;28;20233;-71
2022/01/22 06:01:43;;;;;;;13.98;7.63;;;5.40;83.70;;;;;;5016172;28;21103;-69
2022/01/22 06:04:17;;;;;;;15.15;7.63;;;5.40;83.50;;;;;;4987800;28;20603;-69
2022/01/22 06:06:47;;;;;;;14.20;8.20;;;5.50;83.50;;;;;;4982609;28;20207;-69
2022/01/22 06:09:16;;;;;;;11.25;8.27;;;5.50;83.50;;;;;;4990767;28;20708;-70
2022/01/22 06:11:55;;;;;;;10.68;7.53;;;5.50;83.50;;;;;;5006135;28;20302;-71
2022/01/22 06:14:29;;;;;;;9.57;6.90;;;5.50;83.40;;;;;;5007148;28;20846;-67
2022/01/22 06:16:57;;;;;;;10.90;7.10;;;5.50;83.40;;;;;;4987603;28;20226;-68
2022/01/22 06:19:30;;;;;;;11.90;7.68;;;5.50;83.30;;;;;;4988695;28;20210;-68
2022/01/22 06:21:59;;;;;;;15.02;8.27;;;5.50;83.40;;;;;;4992880;28;20195;-68
2022/01/22 06:24:27;;;;;;;10.55;7.97;;;5.50;83.40;;;;;;5001629;28;20254;-68
2022/01/22 06:27:03;;;;;;;12.32;7.93;;;5.50;83.30;;;;;;5002480;28;20301;-67
2022/01/22 06:29:31;;;;;;;11.85;7.55;;;5.50;83.40;;;;;;4977989;28;20866;-67
2022/01/22 06:31:59;;;;;;;15.75;10.35;;;5.50;83.30;;;;;;4985477;28;20324;-68
2022/01/22 06:34:30;;;;;;;12.13;7.32;;;5.50;83.20;;;;;;4983110;28;20650;-68
2022/01/22 06:36:59;;;;;;;14.63;7.60;;;5.50;83.40;;;;;;4983552;28;20218;-67
2022/01/22 06:39:40;;;;;;;16.67;8.60;;;5.50;83.40;;;;;;4990300;28;20764;-69
2022/01/22 06:42:34;;;;;;;13.55;8.88;;;5.50;83.40;;;;;;4989754;28;20325;-71
2022/01/22 06:45:34;;;;;;;13.15;8.73;;;5.50;83.40;;;;;;4982522;28;20569;-67
2022/01/22 06:48:10;;;;;;;14.93;8.38;;;5.40;83.30;;;;;;4990387;28;20244;-68
2022/01/22 06:50:58;;;;;;;11.52;7.85;;;5.40;83.40;;;;;;4991884;28;20824;-67
2022/01/22 06:53:26;;;;;;;13.45;8.65;;;5.40;83.40;;;;;;4990550;28;20830;-69
2022/01/22 06:55:57;;;;;;;15.73;9.35;;;5.40;83.40;;;;;;4993203;28;20235;-72
2022/01/22 06:58:34;;;;;;;14.63;9.35;;;5.40;83.50;;;;;;4997762;28;20199;-68
2022/01/22 07:01:05;;;;;;;12.38;8.68;;;5.40;83.50;;;;;;4987395;28;20336;-67
2022/01/22 07:03:43;;;;;;;12.52;9.27;;;5.50;83.50;;;;;;5003442;28;20258;-67
2022/01/22 07:06:30;;;;;;;16.83;8.95;;;5.40;83.40;;;;;;4991627;28;20206;-67
2022/01/22 07:08:58;;;;;;;10.85;8.18;;;5.40;83.50;;;;;;4987110;28;20219;-67
2022/01/22 07:11:26;;;;;;;10.90;8.30;;;5.50;83.50;;;;;;4989328;28;20207;-67
2022/01/22 07:13:56;;;;;;;12.32;8.48;;;5.50;83.40;;;;;;5005928;28;20229;-68
2022/01/22 07:16:25;;;;;;;10.05;7.80;;;5.50;83.40;;;;;;5004184;28;20330;-67
2022/01/22 07:19:05;;;;;;;10.18;6.75;;;5.50;83.40;;;;;;4976573;28;20241;-68
2022/01/22 07:21:35;;;;;;;11.32;7.25;;;5.50;83.40;;;;;;5002263;28;21085;-67
2022/01/22 07:26:49;;;;;;;10.35;7.18;;;5.50;83.40;;;;;;4984293;28;20203;-68
2022/01/22 07:29:21;;;;;;;11.80;7.50;;;5.50;83.50;;;;;;4992536;28;20212;-68
2022/01/22 07:31:49;;;;;;;10.23;6.95;;;5.50;83.40;;;;;;4986683;28;20288;-68
2022/01/22 07:34:17;;;;;;;9.18;7.53;;;5.50;83.40;;;;;;4991251;28;20231;-68
2022/01/22 07:36:45;;;;;;;12.63;7.75;;;5.50;83.40;;;;;;4985909;28;20973;-69
2022/01/22 07:39:13;;;;;;;12.93;6.88;;;5.50;83.40;;;;;;4987102;28;20210;-68
2022/01/22 07:42:01;;;;;;;10.15;6.40;;;5.60;83.40;;;;;;4984405;28;20293;-68
2022/01/22 07:44:51;;;;;;;9.18;6.95;;;5.60;83.30;;;;;;4997994;28;20229;-68
2022/01/22 07:47:20;;;;;;;11.85;7.35;;;5.50;83.30;;;;;;5000661;28;20234;-68
2022/01/22 07:49:48;;;;;;;12.60;8.32;;;5.50;83.30;;;;;;4986530;28;20669;-68
2022/01/22 07:52:16;;;;;;;12.75;7.38;;;5.50;83.40;;;;;;4995049;28;20221;-67
2022/01/22 07:54:45;;;;;;;8.07;6.75;;;5.50;83.30;;;;;;4979400;28;20230;-67
2022/01/22 07:57:13;;;;;;;10.77;7.30;;;5.50;83.40;;;;;;4977827;28;20299;-68
2022/01/22 07:59:41;;;;;;;9.98;7.65;;;5.50;83.40;;;;;;5007367;28;20667;-67
2022/01/22 08:02:10;;;;;;;14.05;7.40;;;5.50;83.40;;;;;;4997728;28;20309;-67
2022/01/22 08:04:38;;;;;;;11.85;7.80;;;5.50;83.50;;;;;;4986833;28;20259;-68
2022/01/22 08:07:25;;;;;;;11.25;8.20;;;5.50;83.50;;;;;;4990068;28;20690;-66
2022/01/22 08:10:12;;;;;;;13.25;7.65;;;5.50;83.50;;;;;;4992332;28;20205;-66
2022/01/22 08:12:48;;;;;;;15.20;8.43;;;5.60;83.50;;;;;;4998117;28;20771;-66
2022/01/22 08:15:17;;;;;;;12.70;7.65;;;5.60;83.50;;;;;;4994075;28;20205;-65
2022/01/22 08:17:47;;;;;;;11.15;8.00;;;5.60;83.50;;;;;;4996948;28;20237;-66
2022/01/22 08:20:20;;;;;;;15.77;7.28;;;5.60;83.40;;;;;;4988716;28;20201;-66
2022/01/22 08:22:52;;;;;;;8.60;7.03;;;5.60;83.40;;;;;;4983395;28;20224;-66
2022/01/22 08:25:46;;;;;;;8.73;6.32;;;5.60;83.50;;;;;;4981023;28;20210;-66
2022/01/22 08:31:23;;;;;;;11.95;7.80;;;5.60;83.40;;;;;;4985054;28;20649;-68
2022/01/22 08:36:42;;;;;;;12.02;7.45;;;5.70;83.50;;;;;;4997271;28;20229;-65
2022/01/22 08:39:11;;;;;;;12.68;7.88;;;5.70;83.50;;;;;;4982805;28;20344;-67
2022/01/22 08:41:40;;;;;;;12.27;8.70;;;5.70;83.40;;;;;;4980608;28;20206;-68
2022/01/22 08:44:09;;;;;;;10.75;8.27;;;5.60;83.40;;;;;;4995258;28;20235;-68
2022/01/22 08:46:38;;;;;;;13.50;9.63;;;5.60;83.50;;;;;;4986248;28;20226;-68
2022/01/22 08:49:10;;;;;;;14.00;8.13;;;5.60;83.50;;;;;;4981044;28;20217;-67
2022/01/22 08:51:52;;;;;;;12.40;8.80;;;5.70;83.60;;;;;;4999656;28;20268;-67
2022/01/22 08:54:20;;;;;;;15.73;8.70;;;5.60;83.50;;;;;;4982032;28;20788;-67
2022/01/22 08:56:49;;;;;;;8.57;7.38;;;5.60;83.60;;;;;;5000269;28;20206;-67
2022/01/22 08:59:17;;;;;;;13.30;9.35;;;5.60;83.70;;;;;;4992866;28;20763;-68
2022/01/22 09:01:48;;;;;;;10.40;8.27;;;5.60;83.70;;;;;;4980563;28;20238;-67
2022/01/22 09:04:47;;;;;;;10.98;8.27;;;5.60;83.70;;;;;;4986921;28;20380;-68
2022/01/22 09:07:34;;;;;;;12.65;8.35;;;5.70;83.70;;;;;;5002061;28;20806;-68
2022/01/22 09:10:20;;;;;;;12.77;8.65;;;5.70;83.70;;;;;;4984551;28;20708;-67
2022/01/22 09:13:07;;;;;;;13.45;8.95;;;5.70;84.00;;;;;;4988461;28;20238;-67
2022/01/22 09:15:41;;;;;;;13.80;8.80;;;5.70;83.90;;;;;;4989182;28;20261;-68
2022/01/22 09:18:10;;;;;;;11.52;8.48;;;5.80;84.10;;;;;;4983886;28;20598;-68
2022/01/22 09:20:55;;;;;;;11.55;8.45;;;5.80;84.10;;;;;;4971175;28;20239;-69
2022/01/22 09:23:23;;;;;;;14.30;10.13;;;5.90;84.20;;;;;;5002670;28;20229;-67
2022/01/22 09:25:51;;;;;;;19.27;10.25;;;6.00;84.20;;;;;;4986885;28;20210;-67
2022/01/22 09:28:25;;;;;;;18.80;8.45;;;6.00;84.20;;;;;;4975807;28;20210;-69
2022/01/22 09:30:54;;;;;;;20.25;10.02;;;6.10;84.00;;;;;;4986629;28;20694;-67
2022/01/22 09:33:22;;;;;;;12.20;8.57;;;6.10;83.90;;;;;;4974538;28;20346;-67
2022/01/22 09:36:30;;;;;;;14.75;8.90;;;6.10;84.00;;;;;;4972733;28;20249;-67
2022/01/22 09:39:15;;;;;;;57.97;11.80;;;6.10;83.90;;;;;;4980893;28;20810;-68
2022/01/22 09:42:08;;;;;;;13.02;7.82;;;6.10;84.00;;;;;;4978671;28;20778;-67
2022/01/22 09:44:52;;;;;;;13.85;9.15;;;6.10;83.90;;;;;;4983608;28;20701;-68
2022/01/22 09:47:45;;;;;;;13.02;8.65;;;6.10;83.80;;;;;;4990460;28;20234;-69
2022/01/22 09:50:38;;;;;;;11.07;8.32;;;6.10;83.70;;;;;;4985491;28;20655;-67
2022/01/22 09:53:33;;;;;;;12.52;9.13;;;6.10;83.80;;;;;;4989478;28;20233;-68
2022/01/22 09:56:27;;;;;;;10.05;8.02;;;6.00;83.70;;;;;;4986037;28;20207;-67
2022/01/22 09:59:13;;;;;;;10.57;7.60;;;6.00;83.80;;;;;;4999440;28;20213;-68
2022/01/22 10:02:10;;;;;;;14.57;8.77;;;5.90;83.80;;;;;;4985902;28;20268;-69
2022/01/22 10:04:41;;;;;;;13.40;8.95;;;5.90;83.80;;;;;;4985624;28;20253;-67
2022/01/22 10:07:27;;;;;;;11.88;9.15;;;5.90;83.80;;;;;;4995823;28;20198;-66
2022/01/22 10:10:15;;;;;;;11.50;8.52;;;5.90;83.80;;;;;;4993066;28;20301;-66
2022/01/22 10:13:43;;;;;;;13.38;10.35;;;5.90;83.90;;;;;;4986033;28;20243;-67
2022/01/22 10:16:22;;;;;;;13.80;9.70;;;5.90;84.00;;;;;;4976952;28;20234;-68
2022/01/22 10:19:15;;;;;;;14.02;10.00;;;5.90;83.90;;;;;;4972695;28;20198;-67
2022/01/22 10:21:45;;;;;;;13.20;9.30;;;5.90;84.00;;;;;;4967732;28;20266;-66
2022/01/22 10:24:37;;;;;;;14.00;11.98;;;5.90;84.10;;;;;;4971067;28;20250;-66
2022/01/22 10:27:34;;;;;;;14.60;9.63;;;5.90;84.30;;;;;;4975427;28;20293;-67
2022/01/22 10:30:06;;;;;;;13.00;8.77;;;5.90;84.20;;;;;;4989153;28;20784;-66
2022/01/22 10:32:41;;;;;;;13.98;10.45;;;5.90;84.30;;;;;;4986566;28;20225;-67
2022/01/22 10:35:29;;;;;;;14.02;10.45;;;5.90;84.20;;;;;;4995278;28;20305;-66
2022/01/22 10:38:49;;;;;;;14.45;10.45;;;5.90;84.30;;;;;;4975523;28;20658;-67
2022/01/22 10:41:20;;;;;;;12.73;9.93;;;5.90;84.30;;;;;;4985242;28;20261;-68
2022/01/22 10:43:55;;;;;;;15.95;10.50;;;6.00;84.20;;;;;;4976656;28;20673;-69
2022/01/22 10:46:33;;;;;;;15.05;11.85;;;6.00;84.30;;;;;;4986726;28;20453;-67
2022/01/22 10:49:05;;;;;;;14.75;11.68;;;6.20;84.30;;;;;;4976984;28;20317;-68
2022/01/22 10:51:45;;;;;;;12.38;9.80;;;6.10;84.30;;;;;;4992175;28;20208;-68
2022/01/22 10:54:15;;;;;;;14.80;10.00;;;6.10;84.40;;;;;;4988626;28;21024;-67
2022/01/22 10:56:43;;;;;;;12.75;9.65;;;6.10;84.30;;;;;;4984516;28;20241;-71
2022/01/22 10:59:14;;;;;;;13.35;10.25;;;6.10;84.30;;;;;;4987531;28;20281;-67
2022/01/22 11:01:52;;;;;;;13.15;9.98;;;6.20;84.20;;;;;;4982582;28;20278;-67
2022/01/22 11:04:22;;;;;;;15.00;10.50;;;6.20;84.20;;;;;;4986741;28;20235;-67
2022/01/22 11:06:52;;;;;;;16.80;10.80;;;6.20;84.10;;;;;;4992990;28;20208;-67
2022/01/22 11:09:41;;;;;;;19.55;10.77;;;6.20;84.00;;;;;;4981159;28;20233;-67
2022/01/22 11:12:10;;;;;;;15.07;10.25;;;6.20;84.20;;;;;;4986268;28;20302;-67
2022/01/22 11:14:41;;;;;;;18.10;11.63;;;6.20;84.20;;;;;;4975475;28;20733;-67
2022/01/22 11:17:09;;;;;;;14.75;10.25;;;6.30;84.20;;;;;;4983492;28;20247;-67
2022/01/22 11:19:40;;;;;;;14.05;9.65;;;6.30;84.10;;;;;;4982810;28;20213;-67
2022/01/22 11:22:09;;;;;;;15.05;9.38;;;6.30;84.20;;;;;;4986420;28;20218;-67
2022/01/22 11:24:39;;;;;;;12.43;9.25;;;6.30;84.10;;;;;;4988502;28;20219;-67
2022/01/22 11:27:09;;;;;;;14.18;9.45;;;6.30;84.10;;;;;;4988921;28;20265;-67
2022/01/22 11:29:41;;;;;;;13.00;8.65;;;6.30;84.10;;;;;;4989525;28;20232;-67
2022/01/22 11:32:12;;;;;;;11.88;9.57;;;6.30;84.10;;;;;;4989881;28;20231;-67
2022/01/22 11:34:43;;;;;;;16.23;9.70;;;6.20;84.10;;;;;;4986678;28;20286;-67
2022/01/22 11:37:16;;;;;;;12.70;9.90;;;6.30;84.10;;;;;;4982353;28;20210;-67
2022/01/22 11:39:44;;;;;;;13.23;10.10;;;6.30;84.20;;;;;;4983332;28;20259;-68
2022/01/22 11:42:13;;;;;;;14.75;10.48;;;6.30;84.20;;;;;;4988403;28;20929;-67
2022/01/22 11:44:49;;;;;;;11.38;9.13;;;6.30;84.10;;;;;;4987310;28;20230;-67
2022/01/22 11:47:25;;;;;;;14.27;10.63;;;6.30;84.20;;;;;;4994303;28;20246;-67
2022/01/22 11:50:06;;;;;;;13.50;10.60;;;6.30;84.20;;;;;;4989644;28;20205;-67
2022/01/22 11:52:37;;;;;;;14.68;11.00;;;6.30;84.30;;;;;;4987027;28;20207;-67
2022/01/22 11:55:09;;;;;;;14.18;11.10;;;6.30;84.20;;;;;;4990892;28;20215;-67
2022/01/22 11:57:38;;;;;;;16.02;11.13;;;6.30;84.10;;;;;;4986225;28;20816;-67
2022/01/22 12:00:25;;;;;;;15.68;11.43;;;6.30;84.20;;;;;;4983375;28;20205;-67
2022/01/22 12:06:20;;;;;;;13.38;10.13;;;6.30;84.20;;;;;;5189217;27;20879;-67
2022/01/22 12:09:11;;;;;;;16.10;12.15;;;6.40;84.20;;;;;;5178947;27;20199;-67
2022/01/22 12:14:56;;;;;;;17.52;12.30;;;6.30;84.20;;;;;;5153007;27;20304;-67
2022/01/22 12:17:58;;;;;;;17.42;12.10;;;6.30;84.30;;;;;;5119922;27;20323;-67
2022/01/22 12:23:58;;;;;;;18.58;12.57;;;6.30;84.30;;;;;;5053137;28;20761;-67
2022/01/22 12:26:44;;;;;;;16.20;11.35;;;6.30;84.30;;;;;;5062321;28;20601;-67
2022/01/22 12:29:41;;;;;;;14.90;11.65;;;6.30;84.40;;;;;;5109961;27;20218;-67
2022/01/22 12:32:24;;;;;;;18.30;12.90;;;6.30;84.40;;;;;;5124878;27;20233;-67
2022/01/22 12:35:04;;;;;;;16.60;11.63;;;6.30;84.40;;;;;;5124317;27;20775;-68
2022/01/22 12:37:32;;;;;;;16.27;11.65;;;6.30;84.40;;;;;;5128557;27;20211;-67
2022/01/22 12:40:06;;;;;;;16.90;12.60;;;6.30;84.20;;;;;;5125955;27;20666;-67
2022/01/22 12:45:41;;;;;;;17.13;12.70;;;6.40;84.30;;;;;;5109843;27;20283;-69
2022/01/22 12:48:12;;;;;;;17.73;13.02;;;6.30;84.40;;;;;;5125290;27;20190;-70
2022/01/22 12:50:40;;;;;;;14.25;11.45;;;6.40;84.40;;;;;;5121817;27;20213;-69
2022/01/22 12:53:11;;;;;;;16.50;11.30;;;6.40;84.30;;;;;;5121282;27;20226;-68
2022/01/22 12:58:40;;;;;;;18.10;12.90;;;6.30;84.50;;;;;;5125238;27;20202;-68
2022/01/22 13:01:12;;;;;;;17.55;12.75;;;6.30;84.50;;;;;;5111688;27;20243;-66
2022/01/22 13:03:43;;;;;;;15.57;11.80;;;6.40;84.40;;;;;;5120908;27;20242;-68
2022/01/22 13:06:11;;;;;;;15.80;11.60;;;6.40;84.50;;;;;;5119467;27;20283;-67
2022/01/22 13:08:58;;;;;;;17.17;12.05;;;6.40;84.40;;;;;;5124515;27;20627;-70
2022/01/22 13:11:45;;;;;;;17.77;12.23;;;6.40;84.50;;;;;;5122642;27;20191;-67
2022/01/22 13:14:15;;;;;;;16.80;12.50;;;6.40;84.40;;;;;;5123805;27;20221;-67
2022/01/22 13:16:48;;;;;;;15.70;11.90;;;6.40;84.40;;;;;;5114925;27;20270;-67
2022/01/22 13:19:17;;;;;;;18.35;12.20;;;6.40;84.60;;;;;;5103668;27;20911;-69
2022/01/22 13:21:53;;;;;;;14.50;11.93;;;6.40;84.40;;;;;;5106591;27;20199;-67
2022/01/22 13:24:25;;;;;;;15.88;11.77;;;6.30;84.50;;;;;;5099751;27;20215;-68
2022/01/22 13:26:59;;;;;;;15.68;12.05;;;6.40;84.50;;;;;;5099609;27;20618;-67
2022/01/22 13:29:29;;;;;;;18.33;11.82;;;6.40;84.60;;;;;;5099401;27;20203;-68
2022/01/22 13:32:07;;;;;;;12.30;9.45;;;6.40;84.50;;;;;;5107957;27;20257;-67
2022/01/22 13:34:57;;;;;;;15.48;12.35;;;6.40;84.50;;;;;;5108491;27;20227;-69
2022/01/22 13:40:34;;;;;;;12.95;10.35;;;6.40;84.60;;;;;;5102432;27;20210;-67
2022/01/22 13:48:41;;;;;;;17.05;11.38;;;6.40;84.60;;;;;;5103052;27;20197;-67
2022/01/22 13:51:09;;;;;;;16.33;11.25;;;6.40;84.70;;;;;;5104644;27;20226;-67
2022/01/22 13:53:40;;;;;;;12.68;9.63;;;6.40;84.70;;;;;;5106293;27;20217;-67
2022/01/22 13:56:12;;;;;;;14.15;10.55;;;6.40;84.60;;;;;;5106506;27;20190;-67
2022/01/22 13:58:41;;;;;;;13.25;9.38;;;6.40;84.60;;;;;;5107775;27;20211;-67
2022/01/22 14:01:18;;;;;;;14.07;10.02;;;6.50;84.60;;;;;;5105941;27;20235;-67
2022/01/22 14:04:08;;;;;;;14.18;10.13;;;6.50;84.60;;;;;;5107568;27;20235;-68
2022/01/22 14:06:36;;;;;;;18.17;10.48;;;6.50;84.60;;;;;;5108672;27;20296;-68
2022/01/22 14:09:15;;;;;;;13.20;9.40;;;6.50;84.70;;;;;;5078678;27;20656;-68
2022/01/22 14:12:11;;;;;;;12.20;8.80;;;6.50;84.70;;;;;;5109160;27;20200;-68
2022/01/22 14:14:58;;;;;;;13.50;9.15;;;6.50;84.50;;;;;;5103294;27;20218;-68
2022/01/22 14:17:31;;;;;;;14.25;9.20;;;6.50;84.60;;;;;;5110502;27;20338;-76
2022/01/22 14:20:00;;;;;;;13.95;9.57;;;6.60;84.50;;;;;;5111773;27;20204;-70
2022/01/22 14:22:28;;;;;;;15.73;9.55;;;6.60;84.40;;;;;;5106974;27;20253;-70
2022/01/22 14:25:13;;;;;;;15.57;9.43;;;6.60;84.50;;;;;;5106971;27;20228;-69
2022/01/22 14:27:41;;;;;;;13.82;9.05;;;6.60;84.50;;;;;;5102086;27;20210;-70
2022/01/22 14:30:11;;;;;;;13.07;9.15;;;6.60;84.50;;;;;;5106003;27;20940;-70
2022/01/22 14:32:54;;;;;;;14.25;9.05;;;6.60;84.50;;;;;;5103110;27;20619;-71
2022/01/22 14:35:23;;;;;;;15.30;9.57;;;6.50;84.30;;;;;;5102000;27;20208;-71
2022/01/22 14:37:54;;;;;;;13.90;8.48;;;6.50;84.40;;;;;;5105868;27;20997;-71
2022/01/22 14:46:02;;;;;;;11.93;8.15;;;6.50;84.50;;;;;;5091579;27;20577;-69
2022/01/22 14:48:30;;;;;;;12.40;7.75;;;6.50;84.50;;;;;;5105950;27;20261;-69
2022/01/22 14:50:58;;;;;;;10.88;7.70;;;6.60;84.40;;;;;;5106365;27;20211;-69
2022/01/22 14:53:26;;;;;;;13.85;9.00;;;6.60;84.30;;;;;;5105310;27;20228;-68
2022/01/22 14:55:58;;;;;;;12.60;8.80;;;6.60;84.30;;;;;;5110937;27;20200;-69
2022/01/22 14:58:26;;;;;;;11.55;8.23;;;6.60;84.20;;;;;;5109463;27;20198;-69
2022/01/22 15:00:54;;;;;;;13.15;9.18;;;6.60;84.20;;;;;;5101666;27;20242;-69